M I D A S
Marine Information and Data Acquisition System
Tripno 1889 of the Zeeleeuw from 2010-05-28 06:39:10 to 2010-05-28 13:46:39
Back to CruiseResearch ActivitiesStationsMapUnderway DataData graphs

EquipmentUnitsComment
TimeDGPSUTC
LatitudeDGPSDM.mWGS84
LongitudeDGPSDM.mWGS84
HeadingGyrodeg 
SOGDGPSknotsSpeed over ground
COGDGPSdegCourse over ground
DepthEcho soundermeters200 kHz
Missing or incorrect values are displayed as -999
Navigation data collected by the RV Zeeleeuw from 2010-05-28 06:24:11 to 2010-05-28 13:54:46
Time Latitude Longitude Heading SOG COG Depth
2010-05-28 06:25:20 51°13.683 2°55.878 111.1 4.5 291 -999
2010-05-28 06:26:21 51°13.692 2°55.776 87.8 3.4 271 -999
2010-05-28 06:27:18 51°13.698 2°55.748 60.3 0.7 359 10.9
2010-05-28 06:28:16 51°13.697 2°55.733 34.6 0.9 -999 4.9
2010-05-28 06:29:15 51°13.746 2°55.711 336.4 5.9 336 10
2010-05-28 06:30:15 51°13.863 2°55.611 335.2 9.1 334 9.5
2010-05-28 06:31:16 51°14.009 2°55.503 336.9 9.6 336 9.4
2010-05-28 06:32:16 51°14.159 2°55.398 337.4 9.7 335 9.5
2010-05-28 06:33:17 51°14.275 2°55.295 328.8 6.3 327 9.2
2010-05-28 06:34:17 51°14.34 2°55.224 331.1 3.7 331 9.5
2010-05-28 06:35:16 51°14.417 2°55.167 334.4 6.9 335 9.3
2010-05-28 06:36:16 51°14.558 2°55.028 322.3 12.4 315 10.3
2010-05-28 06:37:16 51°14.738 2°54.844 339.7 13.1 332 10.2
2010-05-28 06:38:16 51°14.915 2°54.641 325.2 13.4 318 10.1
2010-05-28 06:39:16 51°15.084 2°54.424 329 13 322 8.3
2010-05-28 06:40:16 51°15.257 2°54.208 330.6 13.3 323 8.6
2010-05-28 06:41:16 51°15.429 2°53.983 328.2 13.4 321 9.1
2010-05-28 06:42:16 51°15.602 2°53.757 327.8 13.5 320 9.8
2010-05-28 06:43:16 51°15.773 2°53.529 326.9 13.3 321 10.3
2010-05-28 06:44:16 51°15.957 2°53.337 338.5 13.1 333 10.3
2010-05-28 06:45:16 51°16.151 2°53.186 342.5 13 334 10.6
2010-05-28 06:46:16 51°16.345 2°53.037 342.6 13 334 10.6
2010-05-28 06:47:16 51°16.538 2°52.887 342.2 12.8 337 10.1
2010-05-28 06:48:16 51°16.733 2°52.749 341.4 12.7 335 8.8
2010-05-28 06:49:16 51°16.923 2°52.618 344.1 12.5 338 8.4
2010-05-28 06:50:16 51°17.122 2°52.554 3.1 12 359 8.3
2010-05-28 06:51:16 51°17.313 2°52.591 21.5 11.3 21 8.6
2010-05-28 06:52:16 51°17.466 2°52.737 38.4 10.7 35 8.7
2010-05-28 06:53:16 51°17.606 2°52.904 39.9 9.9 39 8.6
2010-05-28 06:54:16 51°17.699 2°53.011 29.9 5 27 8.9
2010-05-28 06:55:16 51°17.759 2°53.048 22.4 3.2 18 8.8
2010-05-28 06:56:16 51°17.802 2°53.069 19.8 2.4 14 9.1
2010-05-28 06:57:16 51°17.842 2°53.083 20 3 17 9.1
2010-05-28 06:58:16 51°17.909 2°53.165 36.9 5.8 36 9.1
2010-05-28 06:59:16 51°17.962 2°53.196 11.1 1.1 351 9.3
2010-05-28 07:00:16 51°17.961 2°53.19 3.5 0.4 232 9.3
2010-05-28 07:01:16 51°17.954 2°53.179 355.5 0.7 218 9.3
2010-05-28 07:02:16 51°17.944 2°53.169 353.8 0.8 214 9.2
2010-05-28 07:03:16 51°17.93 2°53.16 352.8 0.9 203 9.4
2010-05-28 07:04:16 51°17.916 2°53.152 354.8 0.9 195 9.3
2010-05-28 07:05:16 51°17.9 2°53.144 355.6 1 193 9.2
2010-05-28 07:06:16 51°17.9 2°53.139 13.8 1.4 9 9.1
2010-05-28 07:07:16 51°17.918 2°53.238 91.8 6.5 105 9.4
2010-05-28 07:08:16 51°17.875 2°53.448 99 8.1 105 8.9
2010-05-28 07:09:16 51°17.839 2°53.634 93.9 5.7 99 8.7
2010-05-28 07:10:16 51°17.842 2°53.713 50.2 0.6 150 8.8
2010-05-28 07:11:16 51°17.829 2°53.713 37.1 0.8 193 8.8
2010-05-28 07:12:16 51°17.815 2°53.708 23.8 0.8 198 9
2010-05-28 07:13:16 51°17.815 2°53.706 14 0.2 321 9
2010-05-28 07:14:16 51°17.815 2°53.701 11 0.1 273 9
2010-05-28 07:15:16 51°17.817 2°53.698 11.6 0.2 323 9
2010-05-28 07:16:16 51°17.82 2°53.694 11.1 0.2 322 8.9
2010-05-28 07:17:16 51°17.821 2°53.692 13.5 0.1 316 9
2010-05-28 07:18:16 51°17.821 2°53.691 16.1 -999 165 9
2010-05-28 07:19:16 51°17.821 2°53.691 17.9 -999 289 9.1
2010-05-28 07:20:16 51°17.823 2°53.691 16 0.1 32 9
2010-05-28 07:21:16 51°17.823 2°53.691 16.8 0.1 231 8.9
2010-05-28 07:22:16 51°17.823 2°53.69 17.7 0.1 286 9.1
2010-05-28 07:23:17 51°17.823 2°53.69 16.9 -999 39 9.1
2010-05-28 07:24:17 51°17.824 2°53.69 15.9 -999 58 9.1
2010-05-28 07:25:16 51°17.823 2°53.69 15.7 -999 84 9
2010-05-28 07:26:16 51°17.823 2°53.69 17.6 0.1 127 8.9
2010-05-28 07:27:16 51°17.823 2°53.69 17.4 -999 122 9.1
2010-05-28 07:28:16 51°17.823 2°53.689 18.5 0.1 308 9.1
2010-05-28 07:29:17 51°17.823 2°53.69 16.9 -999 193 9.1
2010-05-28 07:30:16 51°17.824 2°53.689 15.1 0.1 318 8.9
2010-05-28 07:31:16 51°17.825 2°53.69 15.7 -999 336 8.9
2010-05-28 07:32:16 51°17.825 2°53.689 15.2 0.1 109 9.1
2010-05-28 07:33:17 51°17.825 2°53.688 15.6 -999 293 9.1
2010-05-28 07:34:17 51°17.826 2°53.688 15.8 0.1 299 9
2010-05-28 07:35:17 51°17.826 2°53.687 16.9 -999 77 9
2010-05-28 07:36:17 51°17.825 2°53.688 16.6 -999 288 9.1
2010-05-28 07:37:17 51°17.825 2°53.688 16.8 0.1 119 9.2
2010-05-28 07:38:16 51°17.826 2°53.688 16.1 0.1 62 9.1
2010-05-28 07:39:16 51°17.826 2°53.687 16.1 0.2 334 9.2
2010-05-28 07:40:16 51°17.825 2°53.687 18.9 0.1 140 8.9
2010-05-28 07:41:16 51°17.825 2°53.687 21.9 -999 171 9.2
2010-05-28 07:42:16 51°17.824 2°53.688 18.8 -999 163 9.2
2010-05-28 07:43:16 51°17.825 2°53.688 17.5 0.1 359 9.3
2010-05-28 07:44:15 51°17.826 2°53.688 17.3 0.1 341 9.3
2010-05-28 07:45:16 51°17.826 2°53.688 17.3 0.1 -999 9.1
2010-05-28 07:46:16 51°17.827 2°53.687 18.2 -999 120 9.1
2010-05-28 07:47:16 51°17.827 2°53.686 20 0.1 214 9.1
2010-05-28 07:48:16 51°17.827 2°53.687 19.8 0.1 93 9.3
2010-05-28 07:49:16 51°17.827 2°53.687 18.3 -999 274 9.3
2010-05-28 07:50:16 51°17.828 2°53.687 18 0.1 318 9.2
2010-05-28 07:51:16 51°17.827 2°53.686 19 0.1 58 9.2
2010-05-28 07:52:16 51°17.826 2°53.686 20.4 0.1 138 9
2010-05-28 07:53:16 51°17.825 2°53.686 20.9 -999 87 9.3
2010-05-28 07:54:16 51°17.826 2°53.686 19.8 0.1 294 9.3
2010-05-28 07:55:16 51°17.824 2°53.687 18.4 0.1 49 9.3
2010-05-28 07:56:16 51°17.824 2°53.686 19.6 -999 155 9.4
2010-05-28 07:57:16 51°17.824 2°53.686 18.3 -999 118 9.4
2010-05-28 07:58:16 51°17.824 2°53.687 19.3 -999 147 9.2
2010-05-28 07:59:16 51°17.823 2°53.686 19.2 0.1 313 9.4
2010-05-28 08:00:16 51°17.823 2°53.687 19.1 -999 43 9.4
2010-05-28 08:01:16 51°17.822 2°53.687 18.8 0.1 177 9.4
2010-05-28 08:02:16 51°17.824 2°53.686 19.7 0.2 345 9.3
2010-05-28 08:03:16 51°17.826 2°53.685 20.5 0.1 336 9.5
2010-05-28 08:04:16 51°17.825 2°53.686 20 0.1 185 9.5
2010-05-28 08:05:16 51°17.827 2°53.684 19.7 -999 289 9.3
2010-05-28 08:06:16 51°17.827 2°53.685 18 0.1 131 9.2
2010-05-28 08:07:16 51°17.826 2°53.685 18.6 0.2 325 9.4
2010-05-28 08:08:16 51°17.827 2°53.685 19.4 0.1 161 9.4
2010-05-28 08:09:16 51°17.828 2°53.684 18.4 0.1 244 9.3
2010-05-28 08:10:16 51°17.828 2°53.685 20.5 0.1 165 9.4
2010-05-28 08:11:16 51°17.829 2°53.684 21.1 -999 202 9.5
2010-05-28 08:12:16 51°17.828 2°53.685 20.4 -999 165 9.6
2010-05-28 08:13:16 51°17.827 2°53.685 19.9 0.1 331 9.5
2010-05-28 08:14:16 51°17.826 2°53.685 20.4 0.1 158 9.4
2010-05-28 08:15:16 51°17.824 2°53.685 20.4 0.1 130 9.6
2010-05-28 08:16:16 51°17.825 2°53.685 20.1 0.1 320 9.6
2010-05-28 08:17:16 51°17.826 2°53.685 18.3 0.1 319 9.5
2010-05-28 08:18:16 51°17.827 2°53.684 19 0.1 316 9.6
2010-05-28 08:19:16 51°17.827 2°53.685 18.3 -999 196 9.6
2010-05-28 08:20:16 51°17.829 2°53.683 18.3 0.1 294 9.3
2010-05-28 08:21:16 51°17.828 2°53.685 19.5 0.2 103 9.5
2010-05-28 08:22:16 51°17.829 2°53.685 19 -999 93 9.5
2010-05-28 08:23:16 51°17.829 2°53.684 18.6 -999 196 9.6
2010-05-28 08:24:17 51°17.833 2°53.682 18.8 0.1 34 9.5
2010-05-28 08:25:16 51°17.834 2°53.681 17.9 0.1 293 9.5
2010-05-28 08:26:16 51°17.831 2°53.684 19.6 0.1 233 9.6
2010-05-28 08:27:16 51°17.83 2°53.683 20.7 0.1 228 9.6
2010-05-28 08:28:16 51°17.83 2°53.684 21.2 0.1 117 9.5
2010-05-28 08:29:16 51°17.829 2°53.684 19.2 0.1 266 9.5
2010-05-28 08:30:16 51°17.829 2°53.685 18.7 0.1 170 9.9
2010-05-28 08:31:16 51°17.83 2°53.685 17.8 -999 21 9.6
2010-05-28 08:32:17 51°17.83 2°53.684 18.5 -999 282 9.7
2010-05-28 08:33:17 51°17.83 2°53.684 19.2 0.1 108 9.6
2010-05-28 08:34:16 51°17.831 2°53.684 17.1 0.1 316 9.6
2010-05-28 08:35:16 51°17.832 2°53.684 18.1 -999 82 9.8
2010-05-28 08:36:17 51°17.833 2°53.685 18.6 -999 175 9.8
2010-05-28 08:37:16 51°17.832 2°53.684 19 0.1 209 9.7
2010-05-28 08:38:16 51°17.83 2°53.684 18.9 0.1 205 9.7
2010-05-28 08:39:16 51°17.829 2°53.685 19.3 0.2 134 9.7
2010-05-28 08:40:16 51°17.829 2°53.685 18.5 0.1 247 9.6
2010-05-28 08:41:16 51°17.829 2°53.685 18.4 0.1 123 9.7
2010-05-28 08:42:17 51°17.828 2°53.685 17.7 -999 307 9.7
2010-05-28 08:43:17 51°17.829 2°53.685 16.8 0.1 30 9.8
2010-05-28 08:44:16 51°17.831 2°53.684 17.7 0.1 331 9.8
2010-05-28 08:45:16 51°17.831 2°53.684 16.9 0.1 142 9.8
2010-05-28 08:46:16 51°17.83 2°53.685 19 0.1 169 9.9
2010-05-28 08:47:16 51°17.829 2°53.684 19.4 0.1 177 9.7
2010-05-28 08:48:17 51°17.829 2°53.684 18.6 -999 97 9.8
2010-05-28 08:49:17 51°17.829 2°53.684 17.7 -999 358 9.8
2010-05-28 08:50:17 51°17.829 2°53.685 16.8 -999 46 9.6
2010-05-28 08:51:16 51°17.829 2°53.684 17 -999 216 9.8
2010-05-28 08:52:16 51°17.829 2°53.685 16.7 -999 168 9.8
2010-05-28 08:53:16 51°17.828 2°53.685 14.7 -999 41 9.8
2010-05-28 08:54:16 51°17.828 2°53.686 15.4 -999 82 9.9
2010-05-28 08:55:16 51°17.828 2°53.686 14.1 0.1 286 9.8
2010-05-28 08:56:16 51°17.828 2°53.686 14.2 0.1 304 9.9
2010-05-28 08:57:16 51°17.829 2°53.685 15.4 0.1 291 9.9
2010-05-28 08:58:16 51°17.829 2°53.685 15.3 -999 51 9.8
2010-05-28 08:59:16 51°17.829 2°53.685 16.5 0.1 216 10
2010-05-28 09:00:16 51°17.828 2°53.686 16.5 0.1 137 9.9
2010-05-28 09:01:17 51°17.828 2°53.685 18 0.1 215 9.9
2010-05-28 09:02:16 51°17.827 2°53.687 16.1 -999 213 9.9
2010-05-28 09:03:16 51°17.826 2°53.687 14.5 0.1 277 9.8
2010-05-28 09:04:16 51°17.826 2°53.687 14.2 0.1 331 9.9
2010-05-28 09:05:16 51°17.826 2°53.687 14.6 0.1 236 9.7
2010-05-28 09:06:16 51°17.826 2°53.687 14.9 0.1 211 10
2010-05-28 09:07:16 51°17.826 2°53.686 15.3 -999 9 10
2010-05-28 09:08:16 51°17.827 2°53.686 14.6 -999 329 9.9
2010-05-28 09:09:16 51°17.828 2°53.686 13.6 -999 297 10.1
2010-05-28 09:10:16 51°17.829 2°53.686 11.9 0.1 312 10
2010-05-28 09:11:17 51°17.829 2°53.686 12.9 0.1 107 10
2010-05-28 09:12:16 51°17.828 2°53.686 13 0.1 159 9.9
2010-05-28 09:13:16 51°17.828 2°53.686 13.9 -999 297 10
2010-05-28 09:14:16 51°17.827 2°53.686 14.5 0.1 198 10
2010-05-28 09:15:16 51°17.828 2°53.687 14.9 0.1 122 10.1
2010-05-28 09:16:16 51°17.828 2°53.686 14.1 0.1 305 9.9
2010-05-28 09:17:16 51°17.829 2°53.686 13.1 -999 101 10.2
2010-05-28 09:18:17 51°17.829 2°53.685 13.1 -999 306 10
2010-05-28 09:19:16 51°17.83 2°53.686 12.1 -999 264 9.9
2010-05-28 09:20:16 51°17.831 2°53.686 12.7 0.1 121 10.4
2010-05-28 09:21:16 51°17.83 2°53.685 13.4 0.1 250 10
2010-05-28 09:22:17 51°17.829 2°53.685 13.6 -999 185 10
2010-05-28 09:23:16 51°17.828 2°53.685 14.1 0.1 184 10
2010-05-28 09:24:16 51°17.828 2°53.687 13.7 -999 12 10.2
2010-05-28 09:25:16 51°17.827 2°53.687 13.4 -999 149 10.2
2010-05-28 09:26:16 51°17.827 2°53.687 12.8 -999 350 10.1
2010-05-28 09:27:16 51°17.827 2°53.687 12.4 -999 293 10
2010-05-28 09:28:16 51°17.828 2°53.689 12.2 0.1 280 10.1
2010-05-28 09:29:16 51°17.828 2°53.688 11.6 0.1 103 10.1
2010-05-28 09:30:16 51°17.828 2°53.688 11.6 0.1 290 10.2
2010-05-28 09:31:16 51°17.828 2°53.688 11.9 0.1 162 10.3
2010-05-28 09:32:16 51°17.826 2°53.689 11.7 0.1 163 10.2
2010-05-28 09:33:16 51°17.826 2°53.69 12.1 -999 113 10.4
2010-05-28 09:34:16 51°17.825 2°53.69 9.4 0.1 298 10.4
2010-05-28 09:35:16 51°17.825 2°53.69 8.1 -999 213 10.2
2010-05-28 09:36:16 51°17.825 2°53.69 7.9 0.1 309 10.3
2010-05-28 09:37:16 51°17.825 2°53.689 7.6 0.1 203 10.3
2010-05-28 09:38:16 51°17.826 2°53.69 5.7 0.1 314 10.4
2010-05-28 09:39:16 51°17.826 2°53.689 7.1 0.1 114 10.4
2010-05-28 09:40:16 51°17.826 2°53.689 5.9 -999 201 10.4
2010-05-28 09:41:16 51°17.826 2°53.69 7.1 -999 189 10.3
2010-05-28 09:42:16 51°17.826 2°53.691 7 0.1 143 10.3
2010-05-28 09:43:16 51°17.825 2°53.691 6 0.1 138 10.5
2010-05-28 09:44:16 51°17.824 2°53.691 5.2 0.1 145 10.5
2010-05-28 09:45:16 51°17.823 2°53.693 4.5 -999 149 10.5
2010-05-28 09:46:16 51°17.822 2°53.693 4 0.1 266 10.3
2010-05-28 09:47:16 51°17.823 2°53.693 3.1 -999 317 10.6
2010-05-28 09:48:16 51°17.822 2°53.693 2 -999 152 10.5
2010-05-28 09:49:16 51°17.823 2°53.693 1.9 0.1 309 10.4
2010-05-28 09:50:16 51°17.824 2°53.692 1 0.1 309 10.5
2010-05-28 09:51:16 51°17.824 2°53.692 1.2 -999 211 10.5
2010-05-28 09:52:16 51°17.824 2°53.692 0.5 -999 310 10.4
2010-05-28 09:53:17 51°17.824 2°53.693 1.7 0.1 212 10.6
2010-05-28 09:54:16 51°17.823 2°53.694 2.9 0.1 124 10.4
2010-05-28 09:55:16 51°17.823 2°53.694 2.3 -999 27 10.9
2010-05-28 09:56:16 51°17.823 2°53.694 1.2 0.1 353 10.6
2010-05-28 09:57:16 51°17.822 2°53.695 359.7 0.1 92 10.7
2010-05-28 09:58:17 51°17.821 2°53.697 0.9 0.1 140 10.9
2010-05-28 09:59:17 51°17.82 2°53.698 0.4 -999 137 10.6
2010-05-28 10:00:17 51°17.82 2°53.699 0.3 -999 243 10.6
2010-05-28 10:01:16 51°17.819 2°53.701 1.9 0.1 84 10.5
2010-05-28 10:02:17 51°17.819 2°53.703 356.5 -999 316 10.5
2010-05-28 10:03:17 51°17.819 2°53.703 353.6 -999 94 10.5
2010-05-28 10:04:17 51°17.82 2°53.703 351.6 -999 214 10.5
2010-05-28 10:05:17 51°17.819 2°53.704 351.3 -999 159 10.6
2010-05-28 10:06:16 51°17.82 2°53.704 351.1 0.1 298 10.5
2010-05-28 10:07:16 51°17.819 2°53.703 347.7 0.1 157 10.5
2010-05-28 10:08:16 51°17.819 2°53.703 350.7 0.1 75 10.6
2010-05-28 10:09:16 51°17.818 2°53.705 350.6 0.1 121 10.7
2010-05-28 10:10:16 51°17.818 2°53.706 349.9 -999 187 10.6
2010-05-28 10:11:16 51°17.817 2°53.708 348.8 0.1 148 10.6
2010-05-28 10:12:16 51°17.817 2°53.709 348.3 0.1 198 10.7
2010-05-28 10:13:16 51°17.818 2°53.709 347.7 0.2 85 11.2
2010-05-28 10:14:16 51°17.817 2°53.712 350.2 0.2 142 10.8
2010-05-28 10:15:15 51°17.816 2°53.715 351 0.2 120 11.1
2010-05-28 10:16:16 51°17.816 2°53.718 347.8 0.1 78 10.8
2010-05-28 10:17:16 51°17.818 2°53.721 344 0.1 40 10.8
2010-05-28 10:18:17 51°17.817 2°53.723 343.7 0.1 97 11
2010-05-28 10:19:16 51°17.817 2°53.726 343.2 0.1 110 11
2010-05-28 10:20:16 51°17.819 2°53.729 341.7 0.2 52 11.1
2010-05-28 10:21:16 51°17.819 2°53.731 339.8 0.1 63 11.1
2010-05-28 10:22:16 51°17.82 2°53.733 338.1 0.1 86 11
2010-05-28 10:23:16 51°17.82 2°53.734 334.7 -999 39 10.8
2010-05-28 10:24:16 51°17.82 2°53.739 335.6 0.2 89 11.1
2010-05-28 10:25:15 51°17.82 2°53.743 332.3 0.2 64 11
2010-05-28 10:26:15 51°17.822 2°53.747 330.8 0.1 69 11.3
2010-05-28 10:27:15 51°17.824 2°53.75 328.8 0.1 55 11
2010-05-28 10:28:15 51°17.825 2°53.752 324.5 0.1 71 11.1
2010-05-28 10:29:15 51°17.825 2°53.752 319.7 0.2 79 11.2
2010-05-28 10:30:16 51°17.825 2°53.757 323.1 0.4 87 11
2010-05-28 10:31:18 51°17.826 2°53.761 320.8 0.1 45 11.2
2010-05-28 10:32:18 51°17.827 2°53.761 315.5 0.1 44 11.4
2010-05-28 10:33:16 51°17.829 2°53.763 314.8 0.2 30 11.3
2010-05-28 10:34:16 51°17.831 2°53.764 310.4 0.1 51 11.5
2010-05-28 10:35:16 51°17.831 2°53.766 308.9 -999 107 11.4
2010-05-28 10:36:16 51°17.833 2°53.767 305.9 0.3 45 11.5
2010-05-28 10:37:16 51°17.834 2°53.767 302.8 0.1 329 11.4
2010-05-28 10:38:16 51°17.835 2°53.767 298.4 -999 162 11.6
2010-05-28 10:39:47 51°17.825 2°53.776 288.4 0.1 114 11.4
2010-05-28 10:41:32 51°17.819 2°53.778 289.4 0.2 148 11.6
2010-05-28 10:42:32 51°17.771 2°53.816 292.4 0.1 183 11.5
2010-05-28 10:43:32 51°17.772 2°53.817 289 0.5 348 11.5
2010-05-28 10:44:32 51°17.775 2°53.816 285.5 1 332 11.7
2010-05-28 10:45:32 51°17.778 2°53.814 283.1 0.8 346 11.6
2010-05-28 10:46:32 51°17.78 2°53.814 282.4 0.8 328 11.7
2010-05-28 10:47:32 51°17.784 2°53.81 283.6 0.7 335 11.9
2010-05-28 10:48:32 51°17.788 2°53.81 287 0.7 338 11.8
2010-05-28 10:49:32 51°17.792 2°53.807 284.1 0.6 336 11.9
2010-05-28 10:50:32 51°17.795 2°53.806 278.4 0.4 346 11.6
2010-05-28 10:51:32 51°17.798 2°53.803 276.3 0.5 332 12.1
2010-05-28 10:52:32 51°17.841 2°53.766 274.1 -999 166 12
2010-05-28 10:53:32 51°17.841 2°53.765 279.3 0.1 26 11.9
2010-05-28 10:54:32 51°17.842 2°53.767 285.1 0.1 320 12
2010-05-28 10:55:32 51°17.845 2°53.766 281.8 0.2 3 12.1
2010-05-28 10:56:32 51°17.845 2°53.767 275.9 0.1 41 12.1
2010-05-28 10:57:32 51°17.845 2°53.768 269.8 0.2 247 12.2
2010-05-28 10:58:32 51°17.844 2°53.767 265 0.1 291 12.1
2010-05-28 10:59:32 51°17.843 2°53.767 268 0.1 136 11.9
2010-05-28 11:00:32 51°17.842 2°53.768 271.6 0.2 190 12.2
2010-05-28 11:01:32 51°17.843 2°53.768 273.9 0.1 1 12.2
2010-05-28 11:02:32 51°17.845 2°53.767 275.5 0.2 1 11.9
2010-05-28 11:03:32 51°17.846 2°53.767 273.1 0.1 103 12.2
2010-05-28 11:04:32 51°17.846 2°53.768 269.6 0.1 3 12.1
2010-05-28 11:05:32 51°17.846 2°53.768 268.3 0.1 110 12.2
2010-05-28 11:06:32 51°17.845 2°53.769 265.7 0.1 343 12
2010-05-28 11:07:32 51°17.843 2°53.769 265 0.1 155 12.3
2010-05-28 11:08:32 51°17.842 2°53.769 266.5 0.1 306 12.3
2010-05-28 11:09:32 51°17.842 2°53.769 266.5 0.2 148 12.4
2010-05-28 11:10:32 51°17.843 2°53.769 269.3 -999 312 12.4
2010-05-28 11:11:32 51°17.844 2°53.77 269.4 0.1 4 12.5
2010-05-28 11:12:32 51°17.847 2°53.768 270.2 0.1 348 12.4
2010-05-28 11:13:32 51°17.849 2°53.768 264.8 -999 352 12.3
2010-05-28 11:14:32 51°17.848 2°53.769 258.2 0.1 244 12.5
2010-05-28 11:15:32 51°17.848 2°53.769 258.1 -999 83 12.5
2010-05-28 11:16:32 51°17.847 2°53.769 258.1 0.1 286 12.4
2010-05-28 11:17:32 51°17.847 2°53.769 260.7 -999 318 12.7
2010-05-28 11:18:32 51°17.848 2°53.769 261.3 0.1 347 12.5
2010-05-28 11:19:32 51°17.849 2°53.769 260.9 0.2 130 12.6
2010-05-28 11:20:32 51°17.85 2°53.769 258.2 -999 284 12.6
2010-05-28 11:21:32 51°17.851 2°53.768 255 0.1 293 12.5
2010-05-28 11:22:32 51°17.849 2°53.769 254.7 -999 174 12.7
2010-05-28 11:23:32 51°17.849 2°53.77 254.1 0.1 198 12.7
2010-05-28 11:24:32 51°17.849 2°53.77 254.3 0.1 342 12.5
2010-05-28 11:25:32 51°17.848 2°53.77 253.9 -999 53 12.6
2010-05-28 11:26:32 51°17.849 2°53.77 254.3 0.1 318 12.6
2010-05-28 11:27:32 51°17.85 2°53.768 254.5 -999 3 12.8
2010-05-28 11:28:32 51°17.85 2°53.769 253.3 0.3 169 12.8
2010-05-28 11:29:32 51°17.849 2°53.771 251 0.2 118 12.5
2010-05-28 11:30:32 51°17.85 2°53.769 252 0.2 313 12.7
2010-05-28 11:31:32 51°17.85 2°53.77 251.1 0.1 132 12.6
2010-05-28 11:32:32 51°17.849 2°53.77 252.1 0.2 156 12.5
2010-05-28 11:33:32 51°17.849 2°53.771 252.1 0.1 286 12.8
2010-05-28 11:34:33 51°17.85 2°53.771 252.6 0.1 185 12.7
2010-05-28 11:35:32 51°17.852 2°53.77 253.2 0.1 39 12.9
2010-05-28 11:36:32 51°17.853 2°53.767 251.5 0.2 84 12.7
2010-05-28 11:37:32 51°17.853 2°53.766 250 0.1 313 12.8
2010-05-28 11:38:32 51°17.855 2°53.761 250.3 0.1 326 12.9
2010-05-28 11:39:32 51°17.855 2°53.761 249.8 0.1 281 12.8
2010-05-28 11:40:32 51°17.856 2°53.759 251.2 -999 286 13.1
2010-05-28 11:41:32 51°17.857 2°53.756 251.6 0.2 334 12.9
2010-05-28 11:42:32 51°17.859 2°53.754 251.4 0.1 346 12.6
2010-05-28 11:43:32 51°17.861 2°53.751 251.1 0.2 326 12.9
2010-05-28 11:44:32 51°17.862 2°53.747 249.2 0.2 247 13
2010-05-28 11:45:32 51°17.863 2°53.744 248.4 0.2 310 13.1
2010-05-28 11:46:32 51°17.865 2°53.738 249.6 0.3 313 12.8
2010-05-28 11:47:32 51°17.867 2°53.737 247.6 0.1 352 12.9
2010-05-28 11:48:32 51°17.872 2°53.724 249.6 0.2 324 12.8
2010-05-28 11:49:32 51°17.874 2°53.72 246.1 0.3 284 13.1
2010-05-28 11:50:32 51°17.876 2°53.71 246.8 0.5 306 12.9
2010-05-28 11:51:32 51°17.879 2°53.708 247.9 0.3 114 12.9
2010-05-28 11:52:31 51°17.88 2°53.706 249.3 0.3 86 12.8
2010-05-28 11:53:32 51°17.879 2°53.71 249 0.3 134 12.9
2010-05-28 11:54:32 51°17.879 2°53.712 248.1 0.5 114 12.9
2010-05-28 11:55:32 51°17.836 2°53.836 246.7 0.1 241 13
2010-05-28 11:56:32 51°17.856 2°53.765 246.4 0.2 350 12.8
2010-05-28 11:57:32 51°17.856 2°53.765 245.2 0.1 173 13
2010-05-28 11:58:32 51°17.856 2°53.765 244.7 -999 4 12.9
2010-05-28 11:59:32 51°17.856 2°53.765 245 -999 144 12.9
2010-05-28 12:00:32 51°17.856 2°53.765 243.1 0.1 234 12.7
2010-05-28 12:01:32 51°17.855 2°53.766 243.3 0.1 291 13
2010-05-28 12:02:32 51°17.856 2°53.764 244.3 0.1 4 13.1
2010-05-28 12:03:32 51°17.856 2°53.765 244.7 0.2 163 12.9
2010-05-28 12:04:32 51°17.857 2°53.763 244.4 0.1 108 12.9
2010-05-28 12:05:32 51°17.858 2°53.763 242.7 0.1 302 12.8
2010-05-28 12:06:32 51°17.858 2°53.762 241.2 0.1 145 12.9
2010-05-28 12:07:32 51°17.857 2°53.764 239.4 0.2 163 12.8
2010-05-28 12:08:32 51°17.857 2°53.764 241.5 -999 26 13
2010-05-28 12:09:32 51°17.857 2°53.764 242.5 -999 282 12.9
2010-05-28 12:10:32 51°17.857 2°53.764 241.5 0.1 314 12.9
2010-05-28 12:11:32 51°17.858 2°53.764 242.3 0.1 296 12.9
2010-05-28 12:12:32 51°17.857 2°53.764 240.7 0.1 214 13
2010-05-28 12:13:32 51°17.857 2°53.764 240.1 0.1 3 13
2010-05-28 12:14:32 51°17.857 2°53.764 241 -999 160 13
2010-05-28 12:15:32 51°17.857 2°53.763 241.5 0.1 191 13
2010-05-28 12:16:32 51°17.859 2°53.762 242 0.1 51 12.9
2010-05-28 12:17:32 51°17.859 2°53.762 240.3 0.2 127 13
2010-05-28 12:18:32 51°17.859 2°53.761 238.9 0.1 116 13
2010-05-28 12:19:32 51°17.858 2°53.763 237.3 0.2 144 13
2010-05-28 12:20:32 51°17.856 2°53.763 237.6 -999 307 13
2010-05-28 12:21:32 51°17.856 2°53.764 237.4 0.2 246 12.8
2010-05-28 12:22:32 51°17.857 2°53.763 240.1 0.2 101 13
2010-05-28 12:23:32 51°17.858 2°53.763 241.1 -999 237 12.9
2010-05-28 12:24:32 51°17.859 2°53.762 239.6 0.3 333 12.9
2010-05-28 12:25:32 51°17.859 2°53.763 238.8 0.2 161 13.1
2010-05-28 12:26:32 51°17.859 2°53.762 239 0.1 343 12.9
2010-05-28 12:27:32 51°17.859 2°53.762 238.3 0.1 295 12.8
2010-05-28 12:28:32 51°17.859 2°53.761 238.8 0.2 334 13
2010-05-28 12:29:32 51°17.86 2°53.761 238.1 0.1 162 13.1
2010-05-28 12:30:32 51°17.859 2°53.761 234.9 -999 128 13.1
2010-05-28 12:31:32 51°17.859 2°53.762 237.2 0.1 339 12.7
2010-05-28 12:32:32 51°17.859 2°53.762 238.5 -999 296 12.8
2010-05-28 12:33:32 51°17.86 2°53.761 238.8 0.1 349 13
2010-05-28 12:34:32 51°17.86 2°53.76 236.7 0.1 198 13
2010-05-28 12:35:32 51°17.86 2°53.76 235.8 -999 13 13
2010-05-28 12:36:32 51°17.858 2°53.763 233.1 0.2 252 13
2010-05-28 12:37:32 51°17.857 2°53.763 235.4 0.2 121 12.8
2010-05-28 12:38:32 51°17.856 2°53.763 237 0.1 266 12.9
2010-05-28 12:39:32 51°17.857 2°53.764 237.8 0.1 103 13
2010-05-28 12:40:32 51°17.858 2°53.762 239.5 0.1 126 12.9
2010-05-28 12:41:32 51°17.859 2°53.762 238.3 0.2 327 12.8
2010-05-28 12:42:32 51°17.858 2°53.762 235.7 0.1 281 12.9
2010-05-28 12:43:32 51°17.858 2°53.762 235.7 0.1 125 13.2
2010-05-28 12:44:32 51°17.858 2°53.762 237.6 0.1 152 12.9
2010-05-28 12:45:32 51°17.859 2°53.761 239.5 0.1 307 12.8
2010-05-28 12:46:32 51°17.859 2°53.76 239 -999 69 12.9
2010-05-28 12:47:32 51°17.859 2°53.761 237.6 0.1 253 12.9
2010-05-28 12:48:32 51°17.86 2°53.76 238.3 0.1 357 13
2010-05-28 12:49:32 51°17.861 2°53.76 238.7 0.3 322 12.7
2010-05-28 12:50:32 51°17.861 2°53.759 237.8 0.1 302 12.9
2010-05-28 12:51:32 51°17.861 2°53.759 237.4 -999 115 13
2010-05-28 12:52:32 51°17.861 2°53.758 236.4 0.1 165 12.9
2010-05-28 12:53:32 51°17.861 2°53.758 237.8 0.2 351 12.9
2010-05-28 12:54:32 51°17.861 2°53.759 235.8 0.1 287 12.9
2010-05-28 12:55:32 51°17.86 2°53.759 235.7 0.1 314 13
2010-05-28 12:56:32 51°17.86 2°53.76 235.7 0.1 101 13
2010-05-28 12:57:32 51°17.86 2°53.759 236.4 -999 331 12.9
2010-05-28 12:58:32 51°17.86 2°53.759 236.4 0.1 352 12.8
2010-05-28 12:59:32 51°17.859 2°53.76 235 0.2 169 12.9
2010-05-28 13:00:32 51°17.859 2°53.757 235.8 0.1 335 12.8
2010-05-28 13:01:32 51°17.86 2°53.76 232 0.2 149 12.9
2010-05-28 13:02:32 51°17.859 2°53.759 234.1 0.1 270 13
2010-05-28 13:03:32 51°17.859 2°53.762 234.1 0.1 54 12.9
2010-05-28 13:04:31 51°17.859 2°53.761 237.5 0.2 301 12.9
2010-05-28 13:05:32 51°17.861 2°53.759 239.4 0.3 334 12.7
2010-05-28 13:06:32 51°17.862 2°53.757 237.4 0.1 197 12.9
2010-05-28 13:07:32 51°17.862 2°53.758 233.4 0.2 118 12.9
2010-05-28 13:08:31 51°17.861 2°53.759 233.3 0.1 289 12.9
2010-05-28 13:09:31 51°17.86 2°53.759 232.3 0.1 85 12.8
2010-05-28 13:10:31 51°17.86 2°53.76 233.4 0.2 157 12.7
2010-05-28 13:11:31 51°17.86 2°53.76 235.2 -999 216 13
2010-05-28 13:12:32 51°17.86 2°53.759 238 0.1 335 12.8
2010-05-28 13:13:32 51°17.862 2°53.758 236.6 0.1 108 13
2010-05-28 13:14:32 51°17.862 2°53.758 235 -999 262 12.8
2010-05-28 13:15:32 51°17.862 2°53.756 236.8 0.2 314 12.7
2010-05-28 13:16:32 51°17.863 2°53.756 234.1 -999 320 12.8
2010-05-28 13:17:32 51°17.862 2°53.757 233.2 0.1 100 12.9
2010-05-28 13:18:32 51°17.862 2°53.757 233.9 -999 334 12.8
2010-05-28 13:19:32 51°17.862 2°53.757 234.5 0.1 295 12.6
2010-05-28 13:20:32 51°17.862 2°53.755 233.7 0.2 253 12.7
2010-05-28 13:21:32 51°17.856 2°53.745 234.2 0.5 231 12.8
2010-05-28 13:22:32 51°17.851 2°53.735 230.3 0.6 216 12.8
2010-05-28 13:23:32 51°17.846 2°53.73 230.8 0.2 190 12.7
2010-05-28 13:24:32 51°17.843 2°53.724 233.9 1 235 12.8
2010-05-28 13:25:32 51°17.814 2°53.663 230.6 4.2 231 12.6
2010-05-28 13:26:32 51°17.75 2°53.55 235.2 6.9 235 12.8
2010-05-28 13:27:32 51°17.672 2°53.371 233.3 9 234 12.8
2010-05-28 13:28:32 51°17.575 2°53.166 231.4 10.2 233 12.6
2010-05-28 13:29:32 51°17.465 2°52.945 229.2 11.1 230 12.6
2010-05-28 13:30:32 51°17.34 2°52.719 228.7 11.7 227 12.5
2010-05-28 13:31:32 51°17.175 2°52.556 199.7 12 192 12.4
2010-05-28 13:32:32 51°16.977 2°52.621 158.4 13.1 146 12.6
2010-05-28 13:33:32 51°16.792 2°52.801 159.9 13.1 150 12.3
2010-05-28 13:34:32 51°16.595 2°52.938 165.8 12.9 158 14
2010-05-28 13:35:32 51°16.399 2°53.071 164.6 12.8 157 14.5
2010-05-28 13:36:32 51°16.201 2°53.208 163.8 13.1 155 14.5
2010-05-28 13:37:32 51°16.003 2°53.344 164.3 13 155 14.4
2010-05-28 13:38:32 51°15.813 2°53.516 154.9 13.6 147 14.4
2010-05-28 13:39:32 51°15.627 2°53.713 151 13.4 145 14
2010-05-28 13:40:32 51°15.451 2°53.935 146.9 13.3 140 13.4
2010-05-28 13:41:32 51°15.277 2°54.161 146 13.6 140 13.1
2010-05-28 13:42:32 51°15.102 2°54.386 146.7 13.5 138 12.7
2010-05-28 13:43:32 51°14.933 2°54.617 149.5 13.1 142 14.2
2010-05-28 13:44:32 51°14.751 2°54.808 153.6 13.4 145 14.3
2010-05-28 13:45:32 51°14.568 2°55.011 154.6 13.3 150 14
2010-05-28 13:46:32 51°14.382 2°55.198 146.7 13.3 147 13.3
2010-05-28 13:47:32 51°14.213 2°55.352 152.5 9.7 152 13.6
2010-05-28 13:50:56 51°14.138 2°55.418 152.1 -999 -999 -999
2010-05-28 13:51:56 51°13.746 2°55.725 130.3 6.5 135 -999
2010-05-28 13:52:56 51°13.691 2°55.848 120.4 5 122 -999
2010-05-28 13:53:56 51°13.665 2°55.941 109.6 2.6 108 -999